sensor_id;sensor_type;location;lat;lon;timestamp;temperature;humidity
62363;DHT22;48396;48.426;1.500;2023-03-23T00:01:48;14.00;99.90
62363;DHT22;48396;48.426;1.500;2023-03-23T00:04:17;13.90;99.90
62363;DHT22;48396;48.426;1.500;2023-03-23T00:06:44;13.90;99.90
62363;DHT22;48396;48.426;1.500;2023-03-23T00:09:12;13.80;99.90
62363;DHT22;48396;48.426;1.500;2023-03-23T00:11:37;13.70;99.90
62363;DHT22;48396;48.426;1.500;2023-03-23T00:14:04;13.70;99.90
62363;DHT22;48396;48.426;1.500;2023-03-23T00:16:32;13.80;99.90
62363;DHT22;48396;48.426;1.500;2023-03-23T00:19:00;13.80;99.90
62363;DHT22;48396;48.426;1.500;2023-03-23T00:21:30;13.70;99.90
62363;DHT22;48396;48.426;1.500;2023-03-23T00:26:33;13.70;99.90
62363;DHT22;48396;48.426;1.500;2023-03-23T00:29:00;13.80;99.90
62363;DHT22;48396;48.426;1.500;2023-03-23T00:31:26;14.10;99.90
62363;DHT22;48396;48.426;1.500;2023-03-23T00:33:57;13.80;99.90
62363;DHT22;48396;48.426;1.500;2023-03-23T00:36:24;13.80;99.90
62363;DHT22;48396;48.426;1.500;2023-03-23T00:38:50;14.00;99.90
62363;DHT22;48396;48.426;1.500;2023-03-23T00:41:15;13.90;99.90
62363;DHT22;48396;48.426;1.500;2023-03-23T00:43:41;13.70;99.90
62363;DHT22;48396;48.426;1.500;2023-03-23T00:46:06;13.70;99.90
62363;DHT22;48396;48.426;1.500;2023-03-23T00:48:38;13.70;99.90
62363;DHT22;48396;48.426;1.500;2023-03-23T00:51:10;13.60;99.90
62363;DHT22;48396;48.426;1.500;2023-03-23T00:53:36;13.50;99.90
62363;DHT22;48396;48.426;1.500;2023-03-23T00:56:02;13.60;99.90
62363;DHT22;48396;48.426;1.500;2023-03-23T00:58:27;13.60;99.90
62363;DHT22;48396;48.426;1.500;2023-03-23T01:00:53;13.60;99.90
62363;DHT22;48396;48.426;1.500;2023-03-23T01:03:19;13.70;99.90
62363;DHT22;48396;48.426;1.500;2023-03-23T01:05:45;13.70;99.90
62363;DHT22;48396;48.426;1.500;2023-03-23T01:08:13;13.80;99.90
62363;DHT22;48396;48.426;1.500;2023-03-23T01:10:39;13.80;99.90
62363;DHT22;48396;48.426;1.500;2023-03-23T01:13:06;13.70;99.90
62363;DHT22;48396;48.426;1.500;2023-03-23T01:15:33;13.60;99.90
62363;DHT22;48396;48.426;1.500;2023-03-23T01:17:59;13.50;99.90
62363;DHT22;48396;48.426;1.500;2023-03-23T01:20:25;13.70;99.90
62363;DHT22;48396;48.426;1.500;2023-03-23T01:22:52;13.70;99.90
62363;DHT22;48396;48.426;1.500;2023-03-23T01:25:18;13.60;99.90
62363;DHT22;48396;48.426;1.500;2023-03-23T01:27:44;13.60;99.90
62363;DHT22;48396;48.426;1.500;2023-03-23T01:30:11;13.60;99.90
62363;DHT22;48396;48.426;1.500;2023-03-23T01:32:38;13.80;99.90
62363;DHT22;48396;48.426;1.500;2023-03-23T01:35:03;13.70;99.90
62363;DHT22;48396;48.426;1.500;2023-03-23T01:37:30;13.80;99.90
62363;DHT22;48396;48.426;1.500;2023-03-23T01:39:56;13.80;99.90
62363;DHT22;48396;48.426;1.500;2023-03-23T01:42:30;13.60;99.90
62363;DHT22;48396;48.426;1.500;2023-03-23T01:47:45;13.60;99.90
62363;DHT22;48396;48.426;1.500;2023-03-23T01:50:11;13.60;99.90
62363;DHT22;48396;48.426;1.500;2023-03-23T01:52:37;13.60;99.90
62363;DHT22;48396;48.426;1.500;2023-03-23T01:55:03;13.70;99.90
62363;DHT22;48396;48.426;1.500;2023-03-23T01:57:29;13.60;99.90
62363;DHT22;48396;48.426;1.500;2023-03-23T01:59:58;13.70;99.90
62363;DHT22;48396;48.426;1.500;2023-03-23T02:02:25;13.60;99.90
62363;DHT22;48396;48.426;1.500;2023-03-23T02:04:51;13.50;99.90
62363;DHT22;48396;48.426;1.500;2023-03-23T02:07:21;13.60;99.90
62363;DHT22;48396;48.426;1.500;2023-03-23T02:09:50;13.70;99.90
62363;DHT22;48396;48.426;1.500;2023-03-23T02:12:15;13.70;99.90
62363;DHT22;48396;48.426;1.500;2023-03-23T02:14:41;13.50;99.90
62363;DHT22;48396;48.426;1.500;2023-03-23T02:17:17;13.40;99.90
62363;DHT22;48396;48.426;1.500;2023-03-23T02:31:22;13.50;99.90
62363;DHT22;48396;48.426;1.500;2023-03-23T02:33:55;13.60;99.90
62363;DHT22;48396;48.426;1.500;2023-03-23T02:39:09;13.30;99.90
62363;DHT22;48396;48.426;1.500;2023-03-23T02:41:41;13.50;99.90
62363;DHT22;48396;48.426;1.500;2023-03-23T02:44:07;13.50;99.90
62363;DHT22;48396;48.426;1.500;2023-03-23T02:46:35;13.50;99.90
62363;DHT22;48396;48.426;1.500;2023-03-23T02:49:02;13.40;99.90
62363;DHT22;48396;48.426;1.500;2023-03-23T02:51:29;13.40;99.90
62363;DHT22;48396;48.426;1.500;2023-03-23T02:53:56;13.50;99.90
62363;DHT22;48396;48.426;1.500;2023-03-23T02:56:25;13.50;99.90
62363;DHT22;48396;48.426;1.500;2023-03-23T02:58:53;13.60;99.90
62363;DHT22;48396;48.426;1.500;2023-03-23T03:03:50;13.60;99.90
62363;DHT22;48396;48.426;1.500;2023-03-23T03:06:38;13.60;99.90
62363;DHT22;48396;48.426;1.500;2023-03-23T03:11:49;13.50;99.90
62363;DHT22;48396;48.426;1.500;2023-03-23T03:14:32;13.40;99.90
62363;DHT22;48396;48.426;1.500;2023-03-23T03:20:06;13.50;99.90
62363;DHT22;48396;48.426;1.500;2023-03-23T03:22:38;13.60;99.90
62363;DHT22;48396;48.426;1.500;2023-03-23T03:25:08;13.50;99.90
62363;DHT22;48396;48.426;1.500;2023-03-23T03:27:35;13.70;99.90
62363;DHT22;48396;48.426;1.500;2023-03-23T03:30:03;13.70;99.90
62363;DHT22;48396;48.426;1.500;2023-03-23T03:32:47;13.70;99.90
62363;DHT22;48396;48.426;1.500;2023-03-23T03:35:14;13.60;99.90
62363;DHT22;48396;48.426;1.500;2023-03-23T03:37:41;13.50;99.90
62363;DHT22;48396;48.426;1.500;2023-03-23T03:40:11;13.50;99.90
62363;DHT22;48396;48.426;1.500;2023-03-23T03:42:41;13.50;99.90
62363;DHT22;48396;48.426;1.500;2023-03-23T03:45:08;13.50;99.90
62363;DHT22;48396;48.426;1.500;2023-03-23T03:47:34;13.70;99.90
62363;DHT22;48396;48.426;1.500;2023-03-23T03:50:00;13.70;99.90
62363;DHT22;48396;48.426;1.500;2023-03-23T03:52:26;13.70;99.90
62363;DHT22;48396;48.426;1.500;2023-03-23T03:54:53;13.70;99.90
62363;DHT22;48396;48.426;1.500;2023-03-23T03:57:18;13.80;99.90
62363;DHT22;48396;48.426;1.500;2023-03-23T03:59:45;13.70;99.90
62363;DHT22;48396;48.426;1.500;2023-03-23T04:02:11;13.60;99.90
62363;DHT22;48396;48.426;1.500;2023-03-23T04:04:39;13.60;99.90
62363;DHT22;48396;48.426;1.500;2023-03-23T04:07:05;13.70;99.90
62363;DHT22;48396;48.426;1.500;2023-03-23T04:09:31;13.70;99.90
62363;DHT22;48396;48.426;1.500;2023-03-23T04:11:56;13.70;99.90
62363;DHT22;48396;48.426;1.500;2023-03-23T04:14:22;13.70;99.90
62363;DHT22;48396;48.426;1.500;2023-03-23T04:16:47;13.90;99.90
62363;DHT22;48396;48.426;1.500;2023-03-23T04:19:17;13.80;99.90
62363;DHT22;48396;48.426;1.500;2023-03-23T04:21:44;13.90;99.90
62363;DHT22;48396;48.426;1.500;2023-03-23T04:24:17;13.90;99.90
62363;DHT22;48396;48.426;1.500;2023-03-23T04:26:46;13.80;99.90
62363;DHT22;48396;48.426;1.500;2023-03-23T04:29:12;13.80;99.90
62363;DHT22;48396;48.426;1.500;2023-03-23T04:31:38;13.80;99.90
62363;DHT22;48396;48.426;1.500;2023-03-23T04:34:05;13.80;99.90
62363;DHT22;48396;48.426;1.500;2023-03-23T04:36:30;13.80;99.90
62363;DHT22;48396;48.426;1.500;2023-03-23T04:38:59;14.00;99.90
62363;DHT22;48396;48.426;1.500;2023-03-23T04:41:26;13.80;99.90
62363;DHT22;48396;48.426;1.500;2023-03-23T04:43:52;13.70;99.90
62363;DHT22;48396;48.426;1.500;2023-03-23T04:46:22;13.70;99.90
62363;DHT22;48396;48.426;1.500;2023-03-23T04:48:48;13.80;99.90
62363;DHT22;48396;48.426;1.500;2023-03-23T06:31:50;13.50;99.90
62363;DHT22;48396;48.426;1.500;2023-03-23T06:34:16;13.40;99.90
62363;DHT22;48396;48.426;1.500;2023-03-23T06:36:42;13.40;99.90
62363;DHT22;48396;48.426;1.500;2023-03-23T06:39:10;13.50;99.90
62363;DHT22;48396;48.426;1.500;2023-03-23T06:41:35;13.50;99.90
62363;DHT22;48396;48.426;1.500;2023-03-23T06:44:01;13.60;99.90
62363;DHT22;48396;48.426;1.500;2023-03-23T06:46:27;13.70;99.90
62363;DHT22;48396;48.426;1.500;2023-03-23T06:48:53;13.80;99.90
62363;DHT22;48396;48.426;1.500;2023-03-23T06:51:19;13.70;99.90
62363;DHT22;48396;48.426;1.500;2023-03-23T06:53:45;13.60;99.90
62363;DHT22;48396;48.426;1.500;2023-03-23T06:56:11;13.60;99.90
62363;DHT22;48396;48.426;1.500;2023-03-23T06:58:38;13.60;99.90
62363;DHT22;48396;48.426;1.500;2023-03-23T07:01:04;13.50;99.90
62363;DHT22;48396;48.426;1.500;2023-03-23T07:03:30;13.50;99.90
62363;DHT22;48396;48.426;1.500;2023-03-23T07:05:56;13.50;99.90
62363;DHT22;48396;48.426;1.500;2023-03-23T07:08:22;13.60;99.90
62363;DHT22;48396;48.426;1.500;2023-03-23T07:10:51;13.50;99.90
62363;DHT22;48396;48.426;1.500;2023-03-23T07:13:18;13.40;99.90
62363;DHT22;48396;48.426;1.500;2023-03-23T07:15:44;13.40;99.90
62363;DHT22;48396;48.426;1.500;2023-03-23T07:18:09;13.40;99.90
62363;DHT22;48396;48.426;1.500;2023-03-23T07:20:36;13.40;99.90
62363;DHT22;48396;48.426;1.500;2023-03-23T07:23:02;13.40;99.90
62363;DHT22;48396;48.426;1.500;2023-03-23T07:25:28;13.50;99.90
62363;DHT22;48396;48.426;1.500;2023-03-23T07:27:53;13.60;99.90
62363;DHT22;48396;48.426;1.500;2023-03-23T07:30:19;13.70;99.90
62363;DHT22;48396;48.426;1.500;2023-03-23T07:32:45;13.80;99.90
62363;DHT22;48396;48.426;1.500;2023-03-23T07:35:11;13.70;99.90
62363;DHT22;48396;48.426;1.500;2023-03-23T07:37:37;13.70;99.90
62363;DHT22;48396;48.426;1.500;2023-03-23T07:40:04;14.00;99.90
62363;DHT22;48396;48.426;1.500;2023-03-23T07:42:33;14.00;99.90
62363;DHT22;48396;48.426;1.500;2023-03-23T07:44:59;14.10;99.90
62363;DHT22;48396;48.426;1.500;2023-03-23T07:47:24;14.00;99.90
62363;DHT22;48396;48.426;1.500;2023-03-23T07:49:50;14.00;99.90
62363;DHT22;48396;48.426;1.500;2023-03-23T07:52:15;13.90;99.90
62363;DHT22;48396;48.426;1.500;2023-03-23T07:54:41;14.00;99.90
62363;DHT22;48396;48.426;1.500;2023-03-23T07:57:07;14.10;99.90
62363;DHT22;48396;48.426;1.500;2023-03-23T07:59:32;14.10;99.90
62363;DHT22;48396;48.426;1.500;2023-03-23T08:01:58;14.00;99.90
62363;DHT22;48396;48.426;1.500;2023-03-23T08:04:23;13.90;99.90
62363;DHT22;48396;48.426;1.500;2023-03-23T08:06:49;13.90;99.90
62363;DHT22;48396;48.426;1.500;2023-03-23T08:09:15;14.00;99.90
62363;DHT22;48396;48.426;1.500;2023-03-23T08:11:41;14.10;99.90
62363;DHT22;48396;48.426;1.500;2023-03-23T08:14:06;14.20;99.90
62363;DHT22;48396;48.426;1.500;2023-03-23T08:16:32;14.30;99.90
62363;DHT22;48396;48.426;1.500;2023-03-23T08:18:58;14.10;99.90
62363;DHT22;48396;48.426;1.500;2023-03-23T08:21:24;14.10;99.90
62363;DHT22;48396;48.426;1.500;2023-03-23T08:23:51;14.10;99.90
62363;DHT22;48396;48.426;1.500;2023-03-23T08:26:17;14.00;99.90
62363;DHT22;48396;48.426;1.500;2023-03-23T08:28:43;14.00;99.90
62363;DHT22;48396;48.426;1.500;2023-03-23T08:31:11;14.00;99.90
62363;DHT22;48396;48.426;1.500;2023-03-23T08:33:38;14.10;99.90
62363;DHT22;48396;48.426;1.500;2023-03-23T08:36:04;14.10;99.90
62363;DHT22;48396;48.426;1.500;2023-03-23T08:38:30;14.20;99.90
62363;DHT22;48396;48.426;1.500;2023-03-23T08:41:04;14.10;99.90
62363;DHT22;48396;48.426;1.500;2023-03-23T08:43:31;14.10;99.90
62363;DHT22;48396;48.426;1.500;2023-03-23T08:45:58;14.00;99.90
62363;DHT22;48396;48.426;1.500;2023-03-23T08:48:24;14.00;99.90
62363;DHT22;48396;48.426;1.500;2023-03-23T08:50:50;14.20;99.90
62363;DHT22;48396;48.426;1.500;2023-03-23T08:53:18;14.30;99.90
62363;DHT22;48396;48.426;1.500;2023-03-23T08:55:43;14.30;99.90
62363;DHT22;48396;48.426;1.500;2023-03-23T08:58:09;14.20;99.90
62363;DHT22;48396;48.426;1.500;2023-03-23T09:00:35;14.20;99.90
62363;DHT22;48396;48.426;1.500;2023-03-23T09:03:01;14.10;99.90
62363;DHT22;48396;48.426;1.500;2023-03-23T09:05:28;14.00;99.90
62363;DHT22;48396;48.426;1.500;2023-03-23T09:07:56;14.00;99.90
62363;DHT22;48396;48.426;1.500;2023-03-23T09:10:25;13.90;99.90
62363;DHT22;48396;48.426;1.500;2023-03-23T09:12:52;14.00;99.90
62363;DHT22;48396;48.426;1.500;2023-03-23T09:15:18;14.10;99.90
62363;DHT22;48396;48.426;1.500;2023-03-23T09:17:46;14.10;99.90
62363;DHT22;48396;48.426;1.500;2023-03-23T09:20:14;14.10;99.90
62363;DHT22;48396;48.426;1.500;2023-03-23T09:22:42;14.20;99.90
62363;DHT22;48396;48.426;1.500;2023-03-23T09:25:11;14.20;99.90
62363;DHT22;48396;48.426;1.500;2023-03-23T09:27:38;14.30;99.90
62363;DHT22;48396;48.426;1.500;2023-03-23T09:30:07;14.40;99.90
62363;DHT22;48396;48.426;1.500;2023-03-23T09:32:34;14.40;99.90
62363;DHT22;48396;48.426;1.500;2023-03-23T09:35:05;14.60;99.90
62363;DHT22;48396;48.426;1.500;2023-03-23T09:37:38;14.60;99.90
62363;DHT22;48396;48.426;1.500;2023-03-23T09:40:05;14.80;99.90
62363;DHT22;48396;48.426;1.500;2023-03-23T09:48:38;14.80;99.90
62363;DHT22;48396;48.426;1.500;2023-03-23T09:54:33;14.70;99.60
62363;DHT22;48396;48.426;1.500;2023-03-23T09:56:34;14.90;99.80
62363;DHT22;48396;48.426;1.500;2023-03-23T09:59:20;14.90;99.90
62363;DHT22;48396;48.426;1.500;2023-03-23T10:01:51;15.00;99.60
62363;DHT22;48396;48.426;1.500;2023-03-23T10:04:28;15.10;99.50
62363;DHT22;48396;48.426;1.500;2023-03-23T10:07:19;14.90;99.20
62363;DHT22;48396;48.426;1.500;2023-03-23T10:09:51;14.80;99.60
62363;DHT22;48396;48.426;1.500;2023-03-23T10:12:52;15.10;99.40
62363;DHT22;48396;48.426;1.500;2023-03-23T10:15:27;15.10;99.10
62363;DHT22;48396;48.426;1.500;2023-03-23T10:18:01;15.00;99.00
62363;DHT22;48396;48.426;1.500;2023-03-23T10:20:56;14.90;99.30
62363;DHT22;48396;48.426;1.500;2023-03-23T10:29:18;15.20;99.00
62363;DHT22;48396;48.426;1.500;2023-03-23T10:31:57;15.30;99.00
62363;DHT22;48396;48.426;1.500;2023-03-23T10:37:13;15.30;98.60
62363;DHT22;48396;48.426;1.500;2023-03-23T10:39:57;15.30;98.80
62363;DHT22;48396;48.426;1.500;2023-03-23T10:42:33;15.50;98.50
62363;DHT22;48396;48.426;1.500;2023-03-23T10:45:09;15.60;98.30
62363;DHT22;48396;48.426;1.500;2023-03-23T10:47:38;15.60;98.10
62363;DHT22;48396;48.426;1.500;2023-03-23T10:50:06;15.60;98.20
62363;DHT22;48396;48.426;1.500;2023-03-23T10:52:40;15.60;98.20
62363;DHT22;48396;48.426;1.500;2023-03-23T10:55:18;15.50;97.70
62363;DHT22;48396;48.426;1.500;2023-03-23T10:57:46;15.30;97.80
62363;DHT22;48396;48.426;1.500;2023-03-23T11:00:20;15.30;98.00
62363;DHT22;48396;48.426;1.500;2023-03-23T11:03:51;15.30;97.90
62363;DHT22;48396;48.426;1.500;2023-03-23T11:05:56;15.40;97.90
62363;DHT22;48396;48.426;1.500;2023-03-23T11:08:28;15.60;97.80
62363;DHT22;48396;48.426;1.500;2023-03-23T11:13:42;15.70;97.30
62363;DHT22;48396;48.426;1.500;2023-03-23T11:16:10;15.80;97.40
62363;DHT22;48396;48.426;1.500;2023-03-23T11:18:47;15.80;97.50
62363;DHT22;48396;48.426;1.500;2023-03-23T11:21:13;15.80;97.50
62363;DHT22;48396;48.426;1.500;2023-03-23T11:23:42;15.80;97.50
62363;DHT22;48396;48.426;1.500;2023-03-23T11:28:43;16.00;97.60
62363;DHT22;48396;48.426;1.500;2023-03-23T11:31:11;16.10;97.30
62363;DHT22;48396;48.426;1.500;2023-03-23T11:36:34;15.90;96.80
62363;DHT22;48396;48.426;1.500;2023-03-23T11:39:00;15.60;97.50
62363;DHT22;48396;48.426;1.500;2023-03-23T11:41:33;15.70;97.50
62363;DHT22;48396;48.426;1.500;2023-03-23T11:44:04;15.70;97.60
62363;DHT22;48396;48.426;1.500;2023-03-23T11:47:02;15.90;97.60
62363;DHT22;48396;48.426;1.500;2023-03-23T11:52:23;16.10;96.70
62363;DHT22;48396;48.426;1.500;2023-03-23T11:54:57;16.10;96.70
62363;DHT22;48396;48.426;1.500;2023-03-23T11:57:27;16.30;96.40
62363;DHT22;48396;48.426;1.500;2023-03-23T11:59:56;16.40;96.10
62363;DHT22;48396;48.426;1.500;2023-03-23T12:03:07;16.60;96.00
62363;DHT22;48396;48.426;1.500;2023-03-23T12:10:46;16.40;96.20
62363;DHT22;48396;48.426;1.500;2023-03-23T12:13:29;16.50;95.70
62363;DHT22;48396;48.426;1.500;2023-03-23T12:16:09;16.50;95.80
62363;DHT22;48396;48.426;1.500;2023-03-23T12:18:55;16.60;95.40
62363;DHT22;48396;48.426;1.500;2023-03-23T12:21:30;16.80;95.20
62363;DHT22;48396;48.426;1.500;2023-03-23T12:37:42;16.90;94.30
62363;DHT22;48396;48.426;1.500;2023-03-23T12:46:45;17.20;94.20
62363;DHT22;48396;48.426;1.500;2023-03-23T12:51:59;17.00;94.40
62363;DHT22;48396;48.426;1.500;2023-03-23T12:54:44;17.20;94.60
62363;DHT22;48396;48.426;1.500;2023-03-23T12:59:54;17.00;93.00
62363;DHT22;48396;48.426;1.500;2023-03-23T13:02:28;16.80;93.00
62363;DHT22;48396;48.426;1.500;2023-03-23T13:05:01;16.80;93.10
62363;DHT22;48396;48.426;1.500;2023-03-23T13:07:33;16.90;93.30
62363;DHT22;48396;48.426;1.500;2023-03-23T13:10:28;16.90;93.10
62363;DHT22;48396;48.426;1.500;2023-03-23T13:12:55;17.00;93.50
62363;DHT22;48396;48.426;1.500;2023-03-23T13:15:34;17.00;93.40
62363;DHT22;48396;48.426;1.500;2023-03-23T13:18:17;17.10;93.50
62363;DHT22;48396;48.426;1.500;2023-03-23T13:28:47;17.00;92.70
62363;DHT22;48396;48.426;1.500;2023-03-23T13:31:16;17.00;92.80
62363;DHT22;48396;48.426;1.500;2023-03-23T13:33:49;17.10;92.70
62363;DHT22;48396;48.426;1.500;2023-03-23T13:36:24;17.00;92.50
62363;DHT22;48396;48.426;1.500;2023-03-23T13:38:50;16.90;92.90
62363;DHT22;48396;48.426;1.500;2023-03-23T13:41:19;17.00;92.80
62363;DHT22;48396;48.426;1.500;2023-03-23T13:43:47;17.00;93.00
62363;DHT22;48396;48.426;1.500;2023-03-23T13:46:27;17.10;92.70
62363;DHT22;48396;48.426;1.500;2023-03-23T13:49:22;17.20;92.40
62363;DHT22;48396;48.426;1.500;2023-03-23T13:54:45;17.30;92.40
62363;DHT22;48396;48.426;1.500;2023-03-23T13:57:48;17.40;92.10
62363;DHT22;48396;48.426;1.500;2023-03-23T14:03:23;17.40;92.10
62363;DHT22;48396;48.426;1.500;2023-03-23T14:11:00;17.60;92.00
62363;DHT22;48396;48.426;1.500;2023-03-23T14:13:41;17.60;91.80
62363;DHT22;48396;48.426;1.500;2023-03-23T14:18:57;17.60;91.40
62363;DHT22;48396;48.426;1.500;2023-03-23T14:21:37;17.40;91.00
62363;DHT22;48396;48.426;1.500;2023-03-23T14:24:12;17.50;91.40
62363;DHT22;48396;48.426;1.500;2023-03-23T14:26:38;17.50;91.50
62363;DHT22;48396;48.426;1.500;2023-03-23T14:29:05;17.50;91.80
62363;DHT22;48396;48.426;1.500;2023-03-23T14:31:32;17.50;91.70
62363;DHT22;48396;48.426;1.500;2023-03-23T14:34:12;17.50;91.40
62363;DHT22;48396;48.426;1.500;2023-03-23T14:36:39;17.40;90.80
62363;DHT22;48396;48.426;1.500;2023-03-23T14:41:34;17.40;90.90
62363;DHT22;48396;48.426;1.500;2023-03-23T14:44:02;17.50;90.80
62363;DHT22;48396;48.426;1.500;2023-03-23T14:46:30;17.50;90.70
62363;DHT22;48396;48.426;1.500;2023-03-23T14:49:00;17.50;90.30
62363;DHT22;48396;48.426;1.500;2023-03-23T14:51:26;17.30;90.50
62363;DHT22;48396;48.426;1.500;2023-03-23T14:53:53;17.20;90.60
62363;DHT22;48396;48.426;1.500;2023-03-23T14:56:21;17.30;90.70
62363;DHT22;48396;48.426;1.500;2023-03-23T14:58:50;17.40;90.70
62363;DHT22;48396;48.426;1.500;2023-03-23T15:01:23;17.40;90.40
62363;DHT22;48396;48.426;1.500;2023-03-23T15:04:10;17.30;90.20
62363;DHT22;48396;48.426;1.500;2023-03-23T15:06:39;17.30;89.90
62363;DHT22;48396;48.426;1.500;2023-03-23T15:09:09;17.30;90.40
62363;DHT22;48396;48.426;1.500;2023-03-23T15:11:38;17.20;90.40
62363;DHT22;48396;48.426;1.500;2023-03-23T15:14:19;17.30;90.30
62363;DHT22;48396;48.426;1.500;2023-03-23T15:16:53;17.20;90.30
62363;DHT22;48396;48.426;1.500;2023-03-23T15:19:23;17.10;90.20
62363;DHT22;48396;48.426;1.500;2023-03-23T15:21:55;17.00;88.40
62363;DHT22;48396;48.426;1.500;2023-03-23T15:26:46;17.00;89.30
62363;DHT22;48396;48.426;1.500;2023-03-23T15:29:20;16.90;88.80
62363;DHT22;48396;48.426;1.500;2023-03-23T15:31:51;16.90;89.30
62363;DHT22;48396;48.426;1.500;2023-03-23T15:36:55;16.90;89.50
62363;DHT22;48396;48.426;1.500;2023-03-23T15:39:22;16.90;90.10
62363;DHT22;48396;48.426;1.500;2023-03-23T15:41:50;16.90;90.10
62363;DHT22;48396;48.426;1.500;2023-03-23T15:44:23;16.90;90.10
62363;DHT22;48396;48.426;1.500;2023-03-23T15:46:51;17.00;90.30
62363;DHT22;48396;48.426;1.500;2023-03-23T15:49:17;16.90;90.60
62363;DHT22;48396;48.426;1.500;2023-03-23T15:51:44;16.90;90.90
62363;DHT22;48396;48.426;1.500;2023-03-23T15:54:15;17.00;91.00
62363;DHT22;48396;48.426;1.500;2023-03-23T15:56:42;17.00;91.10
62363;DHT22;48396;48.426;1.500;2023-03-23T15:59:08;17.00;91.40
62363;DHT22;48396;48.426;1.500;2023-03-23T16:01:34;17.10;91.40
62363;DHT22;48396;48.426;1.500;2023-03-23T16:04:11;17.10;91.50
62363;DHT22;48396;48.426;1.500;2023-03-23T16:06:39;17.20;91.60
62363;DHT22;48396;48.426;1.500;2023-03-23T16:09:07;17.30;91.40
62363;DHT22;48396;48.426;1.500;2023-03-23T16:11:35;17.20;91.20
62363;DHT22;48396;48.426;1.500;2023-03-23T16:14:01;16.90;91.40
62363;DHT22;48396;48.426;1.500;2023-03-23T16:16:31;16.80;91.70
62363;DHT22;48396;48.426;1.500;2023-03-23T16:18:58;16.80;92.00
62363;DHT22;48396;48.426;1.500;2023-03-23T16:21:24;16.70;92.10
62363;DHT22;48396;48.426;1.500;2023-03-23T16:23:49;16.80;92.10
62363;DHT22;48396;48.426;1.500;2023-03-23T16:26:15;16.80;92.20
62363;DHT22;48396;48.426;1.500;2023-03-23T16:28:41;16.90;92.40
62363;DHT22;48396;48.426;1.500;2023-03-23T16:31:07;16.80;92.30
62363;DHT22;48396;48.426;1.500;2023-03-23T16:33:32;16.70;92.50
62363;DHT22;48396;48.426;1.500;2023-03-23T16:35:58;16.70;92.70
62363;DHT22;48396;48.426;1.500;2023-03-23T16:38:24;16.60;92.70
62363;DHT22;48396;48.426;1.500;2023-03-23T16:40:50;16.40;93.20
62363;DHT22;48396;48.426;1.500;2023-03-23T16:43:16;16.40;93.30
62363;DHT22;48396;48.426;1.500;2023-03-23T16:45:44;16.50;93.40
62363;DHT22;48396;48.426;1.500;2023-03-23T16:48:14;16.30;93.70
62363;DHT22;48396;48.426;1.500;2023-03-23T16:50:41;16.20;93.80
62363;DHT22;48396;48.426;1.500;2023-03-23T16:53:07;16.20;93.70
62363;DHT22;48396;48.426;1.500;2023-03-23T16:55:34;16.30;93.80
62363;DHT22;48396;48.426;1.500;2023-03-23T16:58:00;16.40;93.90
62363;DHT22;48396;48.426;1.500;2023-03-23T17:00:27;16.20;94.10
62363;DHT22;48396;48.426;1.500;2023-03-23T17:02:54;16.10;94.30
62363;DHT22;48396;48.426;1.500;2023-03-23T17:05:23;16.10;94.50
62363;DHT22;48396;48.426;1.500;2023-03-23T17:07:50;16.20;94.40
62363;DHT22;48396;48.426;1.500;2023-03-23T17:10:17;16.20;94.50
62363;DHT22;48396;48.426;1.500;2023-03-23T17:12:42;16.10;94.80
62363;DHT22;48396;48.426;1.500;2023-03-23T17:15:09;16.00;94.80
62363;DHT22;48396;48.426;1.500;2023-03-23T17:17:36;16.10;94.90
62363;DHT22;48396;48.426;1.500;2023-03-23T17:20:02;16.00;95.10
62363;DHT22;48396;48.426;1.500;2023-03-23T17:22:28;15.80;95.20
62363;DHT22;48396;48.426;1.500;2023-03-23T17:24:54;15.80;95.40
62363;DHT22;48396;48.426;1.500;2023-03-23T17:27:22;15.80;95.10
62363;DHT22;48396;48.426;1.500;2023-03-23T17:29:48;15.70;95.20
62363;DHT22;48396;48.426;1.500;2023-03-23T17:32:13;15.70;95.50
62363;DHT22;48396;48.426;1.500;2023-03-23T17:34:39;15.70;95.80
62363;DHT22;48396;48.426;1.500;2023-03-23T17:37:06;15.70;95.60
62363;DHT22;48396;48.426;1.500;2023-03-23T17:39:31;15.80;95.80
62363;DHT22;48396;48.426;1.500;2023-03-23T17:41:58;15.70;96.10
62363;DHT22;48396;48.426;1.500;2023-03-23T17:44:24;15.80;96.10
62363;DHT22;48396;48.426;1.500;2023-03-23T17:46:50;15.80;96.10
62363;DHT22;48396;48.426;1.500;2023-03-23T17:49:15;15.80;96.10
62363;DHT22;48396;48.426;1.500;2023-03-23T17:51:41;15.90;96.10
62363;DHT22;48396;48.426;1.500;2023-03-23T17:54:07;16.10;95.80
62363;DHT22;48396;48.426;1.500;2023-03-23T17:56:33;16.10;95.70
62363;DHT22;48396;48.426;1.500;2023-03-23T17:58:58;16.20;95.70
62363;DHT22;48396;48.426;1.500;2023-03-23T18:01:24;16.20;95.80
62363;DHT22;48396;48.426;1.500;2023-03-23T18:03:50;16.20;95.90
62363;DHT22;48396;48.426;1.500;2023-03-23T18:06:15;16.20;96.00
62363;DHT22;48396;48.426;1.500;2023-03-23T18:08:41;16.10;96.20
62363;DHT22;48396;48.426;1.500;2023-03-23T18:11:07;16.30;96.10
62363;DHT22;48396;48.426;1.500;2023-03-23T18:13:34;16.20;96.30
62363;DHT22;48396;48.426;1.500;2023-03-23T18:16:00;16.20;96.30
62363;DHT22;48396;48.426;1.500;2023-03-23T18:18:28;16.20;96.50
62363;DHT22;48396;48.426;1.500;2023-03-23T18:20:55;16.20;96.60
62363;DHT22;48396;48.426;1.500;2023-03-23T18:23:21;16.20;96.70
62363;DHT22;48396;48.426;1.500;2023-03-23T18:25:48;16.20;96.70
62363;DHT22;48396;48.426;1.500;2023-03-23T18:28:14;16.10;97.10
62363;DHT22;48396;48.426;1.500;2023-03-23T18:30:40;16.00;97.40
62363;DHT22;48396;48.426;1.500;2023-03-23T18:33:05;15.90;97.80
62363;DHT22;48396;48.426;1.500;2023-03-23T18:35:31;15.90;97.90
62363;DHT22;48396;48.426;1.500;2023-03-23T18:37:56;15.90;98.10
62363;DHT22;48396;48.426;1.500;2023-03-23T18:40:22;15.90;98.20
62363;DHT22;48396;48.426;1.500;2023-03-23T18:42:48;15.80;98.40
62363;DHT22;48396;48.426;1.500;2023-03-23T18:45:13;15.90;98.40
62363;DHT22;48396;48.426;1.500;2023-03-23T18:47:39;16.00;98.30
62363;DHT22;48396;48.426;1.500;2023-03-23T18:50:09;15.80;98.70
62363;DHT22;48396;48.426;1.500;2023-03-23T18:52:35;15.80;98.60
62363;DHT22;48396;48.426;1.500;2023-03-23T18:55:02;15.90;98.80
62363;DHT22;48396;48.426;1.500;2023-03-23T18:57:27;15.80;99.00
62363;DHT22;48396;48.426;1.500;2023-03-23T18:59:53;15.70;99.50
62363;DHT22;48396;48.426;1.500;2023-03-23T19:02:19;15.70;99.60
62363;DHT22;48396;48.426;1.500;2023-03-23T19:04:47;15.70;99.20
62363;DHT22;48396;48.426;1.500;2023-03-23T19:07:14;15.60;99.60
62363;DHT22;48396;48.426;1.500;2023-03-23T19:09:40;15.50;99.80
62363;DHT22;48396;48.426;1.500;2023-03-23T19:12:07;15.60;99.70
62363;DHT22;48396;48.426;1.500;2023-03-23T19:14:34;15.60;99.70
62363;DHT22;48396;48.426;1.500;2023-03-23T19:16:59;15.50;99.90
62363;DHT22;48396;48.426;1.500;2023-03-23T19:19:25;15.60;99.90